Disclaimer

Please do not use the information listed here in-flight or in-navigation, as they are not provided to us by the airports but are provided by volunteers, so they might be outdated.

Search


Regions


Airport information page

Radio informations:
Tower (TWR) - 122.0 MHz
Ground (GND) - 275.8 MHz

Airport informations:
Latitude: 35° 23' 38.68" N
Longitude: 136° 52' 10.80" E
Elevation: 128 feet - 39 meters
Operating hours: Remarks
Operating agency: Military
Timezone: UTC+9
Fuel: JP-4, Wide cut turbine fuel MIL Spec T-5624

100/130 octane gasoline, leaded, MIL-L-5572F (GREEN)

Runway information:
10/28 - 8860 x 150 feet< - >2701 x 46 meters

Recent METARs:
RJNG 122030Z 32003KT 260V340 9999 -SHRA FEW090 BKN120 13/09 Q1012 RMK 1AC090 5AC120 A2989
RJNG 122030Z 32003KT 260V340 9999 -SHRA FEW090 BKN120 13/09 Q1012 RMK 1AC090 5AC120 A2989
RJNG 122030Z 32003KT 260V340 9999 -SHRA FEW090 BKN120 13/09 Q1012 RMK 1AC090 5AC120 A2989

Airport on the map: